sensor_id;sensor_type;location;lat;lon;timestamp;temperature;humidity
7174;DHT22;3628;48.654;8.932;2023-03-11T00:00:12;1.90;99.90
7174;DHT22;3628;48.654;8.932;2023-03-11T00:02:40;1.90;99.90
7174;DHT22;3628;48.654;8.932;2023-03-11T00:05:07;1.90;99.90
7174;DHT22;3628;48.654;8.932;2023-03-11T00:07:33;1.90;99.90
7174;DHT22;3628;48.654;8.932;2023-03-11T00:09:59;1.90;99.90
7174;DHT22;3628;48.654;8.932;2023-03-11T00:12:24;1.80;99.90
7174;DHT22;3628;48.654;8.932;2023-03-11T00:14:50;1.80;99.90
7174;DHT22;3628;48.654;8.932;2023-03-11T00:17:15;1.90;99.90
7174;DHT22;3628;48.654;8.932;2023-03-11T00:19:41;1.80;99.90
7174;DHT22;3628;48.654;8.932;2023-03-11T00:22:06;1.90;99.90
7174;DHT22;3628;48.654;8.932;2023-03-11T00:24:33;1.90;99.90
7174;DHT22;3628;48.654;8.932;2023-03-11T00:26:58;1.90;99.90
7174;DHT22;3628;48.654;8.932;2023-03-11T00:29:24;2.00;99.90
7174;DHT22;3628;48.654;8.932;2023-03-11T00:31:49;2.00;99.90
7174;DHT22;3628;48.654;8.932;2023-03-11T00:34:15;2.10;99.90
7174;DHT22;3628;48.654;8.932;2023-03-11T00:36:40;2.10;99.90
7174;DHT22;3628;48.654;8.932;2023-03-11T00:39:06;2.10;99.90
7174;DHT22;3628;48.654;8.932;2023-03-11T00:41:33;2.20;99.90
7174;DHT22;3628;48.654;8.932;2023-03-11T00:43:58;2.20;99.90
7174;DHT22;3628;48.654;8.932;2023-03-11T00:46:24;2.20;99.90
7174;DHT22;3628;48.654;8.932;2023-03-11T00:48:50;2.20;99.90
7174;DHT22;3628;48.654;8.932;2023-03-11T00:51:16;2.20;99.90
7174;DHT22;3628;48.654;8.932;2023-03-11T00:53:42;2.20;99.90
7174;DHT22;3628;48.654;8.932;2023-03-11T00:56:13;2.20;99.90
7174;DHT22;3628;48.654;8.932;2023-03-11T00:58:39;2.20;99.90
7174;DHT22;3628;48.654;8.932;2023-03-11T01:01:10;2.20;99.90
7174;DHT22;3628;48.654;8.932;2023-03-11T01:03:37;2.20;99.90
7174;DHT22;3628;48.654;8.932;2023-03-11T01:06:03;2.20;99.90
7174;DHT22;3628;48.654;8.932;2023-03-11T01:08:29;2.20;99.90
7174;DHT22;3628;48.654;8.932;2023-03-11T01:10:56;2.20;99.90
7174;DHT22;3628;48.654;8.932;2023-03-11T01:13:23;2.20;99.90
7174;DHT22;3628;48.654;8.932;2023-03-11T01:15:48;2.20;99.90
7174;DHT22;3628;48.654;8.932;2023-03-11T01:18:14;2.20;99.90
7174;DHT22;3628;48.654;8.932;2023-03-11T01:20:41;2.20;99.90
7174;DHT22;3628;48.654;8.932;2023-03-11T01:23:07;2.20;99.90
7174;DHT22;3628;48.654;8.932;2023-03-11T01:25:34;2.20;99.90
7174;DHT22;3628;48.654;8.932;2023-03-11T01:27:59;2.20;99.90
7174;DHT22;3628;48.654;8.932;2023-03-11T01:30:26;2.10;99.90
7174;DHT22;3628;48.654;8.932;2023-03-11T01:32:53;2.10;99.90
7174;DHT22;3628;48.654;8.932;2023-03-11T01:35:20;2.10;99.90
7174;DHT22;3628;48.654;8.932;2023-03-11T01:37:46;2.10;99.90
7174;DHT22;3628;48.654;8.932;2023-03-11T01:40:19;2.10;99.90
7174;DHT22;3628;48.654;8.932;2023-03-11T01:42:45;2.00;99.90
7174;DHT22;3628;48.654;8.932;2023-03-11T01:45:26;2.00;99.90
7174;DHT22;3628;48.654;8.932;2023-03-11T01:47:54;2.00;99.90
7174;DHT22;3628;48.654;8.932;2023-03-11T01:50:20;2.00;99.90
7174;DHT22;3628;48.654;8.932;2023-03-11T01:52:46;2.10;99.90
7174;DHT22;3628;48.654;8.932;2023-03-11T01:55:14;2.10;99.90
7174;DHT22;3628;48.654;8.932;2023-03-11T01:57:43;2.10;99.90
7174;DHT22;3628;48.654;8.932;2023-03-11T02:00:12;2.10;99.90
7174;DHT22;3628;48.654;8.932;2023-03-11T02:02:53;2.10;99.90
7174;DHT22;3628;48.654;8.932;2023-03-11T02:05:23;2.00;99.90
7174;DHT22;3628;48.654;8.932;2023-03-11T02:07:50;2.00;99.90
7174;DHT22;3628;48.654;8.932;2023-03-11T02:10:16;2.00;99.90
7174;DHT22;3628;48.654;8.932;2023-03-11T02:12:44;2.00;99.90
7174;DHT22;3628;48.654;8.932;2023-03-11T02:15:10;1.90;99.90
7174;DHT22;3628;48.654;8.932;2023-03-11T02:17:37;1.90;99.90
7174;DHT22;3628;48.654;8.932;2023-03-11T02:23:00;1.90;99.90
7174;DHT22;3628;48.654;8.932;2023-03-11T02:25:32;1.90;99.90
7174;DHT22;3628;48.654;8.932;2023-03-11T02:28:00;1.80;99.90
7174;DHT22;3628;48.654;8.932;2023-03-11T02:30:28;1.80;99.90
7174;DHT22;3628;48.654;8.932;2023-03-11T02:32:55;1.70;99.90
7174;DHT22;3628;48.654;8.932;2023-03-11T02:35:21;1.60;99.90
7174;DHT22;3628;48.654;8.932;2023-03-11T02:37:48;1.60;99.90
7174;DHT22;3628;48.654;8.932;2023-03-11T02:42:54;1.40;99.90
7174;DHT22;3628;48.654;8.932;2023-03-11T02:45:23;1.40;99.90
7174;DHT22;3628;48.654;8.932;2023-03-11T02:47:50;1.20;99.90
7174;DHT22;3628;48.654;8.932;2023-03-11T02:50:17;1.20;99.90
7174;DHT22;3628;48.654;8.932;2023-03-11T02:52:43;1.20;99.90
7174;DHT22;3628;48.654;8.932;2023-03-11T02:55:09;1.10;99.90
7174;DHT22;3628;48.654;8.932;2023-03-11T02:57:36;1.10;99.90
7174;DHT22;3628;48.654;8.932;2023-03-11T03:00:03;1.00;99.90
7174;DHT22;3628;48.654;8.932;2023-03-11T03:02:35;1.00;99.90
7174;DHT22;3628;48.654;8.932;2023-03-11T03:05:01;0.90;99.90
7174;DHT22;3628;48.654;8.932;2023-03-11T03:07:27;0.90;99.90
7174;DHT22;3628;48.654;8.932;2023-03-11T03:09:52;0.80;99.90
7174;DHT22;3628;48.654;8.932;2023-03-11T03:12:18;0.80;99.90
7174;DHT22;3628;48.654;8.932;2023-03-11T03:14:43;0.70;99.90
7174;DHT22;3628;48.654;8.932;2023-03-11T03:17:09;0.70;99.90
7174;DHT22;3628;48.654;8.932;2023-03-11T03:19:34;0.60;99.90
7174;DHT22;3628;48.654;8.932;2023-03-11T03:22:00;0.60;99.90
7174;DHT22;3628;48.654;8.932;2023-03-11T03:24:25;0.60;99.90
7174;DHT22;3628;48.654;8.932;2023-03-11T03:26:51;0.50;99.90
7174;DHT22;3628;48.654;8.932;2023-03-11T03:29:16;0.50;99.90
7174;DHT22;3628;48.654;8.932;2023-03-11T03:31:42;0.50;99.90
7174;DHT22;3628;48.654;8.932;2023-03-11T03:34:08;0.40;99.90
7174;DHT22;3628;48.654;8.932;2023-03-11T03:36:33;0.40;99.90
7174;DHT22;3628;48.654;8.932;2023-03-11T03:38:59;0.40;99.90
7174;DHT22;3628;48.654;8.932;2023-03-11T03:41:26;0.40;99.90
7174;DHT22;3628;48.654;8.932;2023-03-11T03:43:52;0.30;99.90
7174;DHT22;3628;48.654;8.932;2023-03-11T03:46:19;0.30;99.90
7174;DHT22;3628;48.654;8.932;2023-03-11T03:48:45;0.20;99.90
7174;DHT22;3628;48.654;8.932;2023-03-11T03:51:12;0.20;99.90
7174;DHT22;3628;48.654;8.932;2023-03-11T03:53:38;0.20;99.90
7174;DHT22;3628;48.654;8.932;2023-03-11T03:56:06;0.20;99.90
7174;DHT22;3628;48.654;8.932;2023-03-11T03:58:32;0.20;99.90
7174;DHT22;3628;48.654;8.932;2023-03-11T04:00:58;0.10;99.90
7174;DHT22;3628;48.654;8.932;2023-03-11T04:03:25;0.10;99.90
7174;DHT22;3628;48.654;8.932;2023-03-11T04:05:51;0.10;99.90
7174;DHT22;3628;48.654;8.932;2023-03-11T04:08:16;0.10;99.90
7174;DHT22;3628;48.654;8.932;2023-03-11T04:10:43;0.00;99.90
7174;DHT22;3628;48.654;8.932;2023-03-11T04:13:08;0.00;99.90
7174;DHT22;3628;48.654;8.932;2023-03-11T04:15:34;0.00;99.90
7174;DHT22;3628;48.654;8.932;2023-03-11T04:18:01;0.00;99.90
7174;DHT22;3628;48.654;8.932;2023-03-11T04:20:27;0.00;99.90
7174;DHT22;3628;48.654;8.932;2023-03-11T04:22:52;0.00;99.90
7174;DHT22;3628;48.654;8.932;2023-03-11T04:25:18;0.00;99.90
7174;DHT22;3628;48.654;8.932;2023-03-11T04:27:43;-0.10;99.90
7174;DHT22;3628;48.654;8.932;2023-03-11T04:30:11;-0.10;99.90
7174;DHT22;3628;48.654;8.932;2023-03-11T04:32:37;-0.10;99.90
7174;DHT22;3628;48.654;8.932;2023-03-11T04:35:04;-0.10;99.90
7174;DHT22;3628;48.654;8.932;2023-03-11T04:37:30;-0.10;99.90
7174;DHT22;3628;48.654;8.932;2023-03-11T04:39:55;-0.20;99.90
7174;DHT22;3628;48.654;8.932;2023-03-11T04:42:21;-0.20;99.90
7174;DHT22;3628;48.654;8.932;2023-03-11T04:44:46;-0.20;99.90
7174;DHT22;3628;48.654;8.932;2023-03-11T04:47:12;-0.20;99.90
7174;DHT22;3628;48.654;8.932;2023-03-11T04:49:37;-0.20;99.90
7174;DHT22;3628;48.654;8.932;2023-03-11T04:52:03;-0.20;99.90
7174;DHT22;3628;48.654;8.932;2023-03-11T04:54:29;-0.30;99.90
7174;DHT22;3628;48.654;8.932;2023-03-11T04:56:54;-0.20;99.90
7174;DHT22;3628;48.654;8.932;2023-03-11T04:59:20;-0.30;99.90
7174;DHT22;3628;48.654;8.932;2023-03-11T05:01:45;-0.30;99.90
7174;DHT22;3628;48.654;8.932;2023-03-11T05:04:11;-0.40;99.90
7174;DHT22;3628;48.654;8.932;2023-03-11T05:06:37;-0.40;99.90
7174;DHT22;3628;48.654;8.932;2023-03-11T05:09:02;-0.40;99.90
7174;DHT22;3628;48.654;8.932;2023-03-11T05:11:29;-0.40;99.90
7174;DHT22;3628;48.654;8.932;2023-03-11T05:13:54;-0.40;99.90
7174;DHT22;3628;48.654;8.932;2023-03-11T05:16:20;-0.50;99.90
7174;DHT22;3628;48.654;8.932;2023-03-11T05:18:46;-0.50;99.90
7174;DHT22;3628;48.654;8.932;2023-03-11T05:21:11;-0.40;99.90
7174;DHT22;3628;48.654;8.932;2023-03-11T05:23:37;-0.40;99.90
7174;DHT22;3628;48.654;8.932;2023-03-11T05:26:02;-0.40;99.90
7174;DHT22;3628;48.654;8.932;2023-03-11T05:28:28;-0.40;99.90
7174;DHT22;3628;48.654;8.932;2023-03-11T05:30:53;-0.50;99.90
7174;DHT22;3628;48.654;8.932;2023-03-11T05:33:19;-0.50;99.90
7174;DHT22;3628;48.654;8.932;2023-03-11T05:35:45;-0.50;99.90
7174;DHT22;3628;48.654;8.932;2023-03-11T05:38:10;-0.50;99.90
7174;DHT22;3628;48.654;8.932;2023-03-11T05:40:36;-0.50;99.90
7174;DHT22;3628;48.654;8.932;2023-03-11T05:43:01;-0.50;99.90
7174;DHT22;3628;48.654;8.932;2023-03-11T05:45:27;-0.50;99.90
7174;DHT22;3628;48.654;8.932;2023-03-11T05:47:52;-0.50;99.90
7174;DHT22;3628;48.654;8.932;2023-03-11T05:50:18;-0.50;99.90
7174;DHT22;3628;48.654;8.932;2023-03-11T05:52:43;-0.50;99.90
7174;DHT22;3628;48.654;8.932;2023-03-11T05:55:09;-0.50;99.90
7174;DHT22;3628;48.654;8.932;2023-03-11T05:57:37;-0.50;99.90
7174;DHT22;3628;48.654;8.932;2023-03-11T06:00:05;-0.50;99.90
7174;DHT22;3628;48.654;8.932;2023-03-11T06:02:31;-0.50;99.90
7174;DHT22;3628;48.654;8.932;2023-03-11T06:04:57;-0.50;99.90
7174;DHT22;3628;48.654;8.932;2023-03-11T06:07:22;-0.50;99.90
7174;DHT22;3628;48.654;8.932;2023-03-11T06:09:51;-0.50;99.90
7174;DHT22;3628;48.654;8.932;2023-03-11T06:12:17;-0.50;99.90
7174;DHT22;3628;48.654;8.932;2023-03-11T06:14:42;-0.40;99.90
7174;DHT22;3628;48.654;8.932;2023-03-11T06:17:08;-0.40;99.90
7174;DHT22;3628;48.654;8.932;2023-03-11T06:19:33;-0.30;99.90
7174;DHT22;3628;48.654;8.932;2023-03-11T06:21:59;-0.30;99.90
7174;DHT22;3628;48.654;8.932;2023-03-11T06:24:24;-0.30;99.90
7174;DHT22;3628;48.654;8.932;2023-03-11T06:26:51;-0.20;99.90
7174;DHT22;3628;48.654;8.932;2023-03-11T06:29:16;-0.20;99.90
7174;DHT22;3628;48.654;8.932;2023-03-11T06:31:42;-0.20;99.90
7174;DHT22;3628;48.654;8.932;2023-03-11T06:34:09;-0.10;99.90
7174;DHT22;3628;48.654;8.932;2023-03-11T06:36:35;0.00;99.90
7174;DHT22;3628;48.654;8.932;2023-03-11T06:39:00;0.00;99.90
7174;DHT22;3628;48.654;8.932;2023-03-11T06:41:26;0.10;99.90
7174;DHT22;3628;48.654;8.932;2023-03-11T06:43:52;0.30;99.90
7174;DHT22;3628;48.654;8.932;2023-03-11T06:46:22;0.40;99.90
7174;DHT22;3628;48.654;8.932;2023-03-11T06:48:47;0.60;99.90
7174;DHT22;3628;48.654;8.932;2023-03-11T06:51:17;0.70;99.90
7174;DHT22;3628;48.654;8.932;2023-03-11T06:53:44;0.90;99.90
7174;DHT22;3628;48.654;8.932;2023-03-11T06:56:12;1.00;99.90
7174;DHT22;3628;48.654;8.932;2023-03-11T06:58:40;1.10;99.90
7174;DHT22;3628;48.654;8.932;2023-03-11T07:01:11;1.20;99.90
7174;DHT22;3628;48.654;8.932;2023-03-11T07:03:37;1.20;99.90
7174;DHT22;3628;48.654;8.932;2023-03-11T07:06:03;1.30;99.90
7174;DHT22;3628;48.654;8.932;2023-03-11T07:08:29;1.50;99.90
7174;DHT22;3628;48.654;8.932;2023-03-11T07:11:09;1.60;99.90
7174;DHT22;3628;48.654;8.932;2023-03-11T07:13:35;1.60;99.90
7174;DHT22;3628;48.654;8.932;2023-03-11T07:16:01;1.70;99.90
7174;DHT22;3628;48.654;8.932;2023-03-11T07:18:27;1.60;99.90
7174;DHT22;3628;48.654;8.932;2023-03-11T07:20:52;1.70;99.90
7174;DHT22;3628;48.654;8.932;2023-03-11T07:23:18;1.70;99.90
7174;DHT22;3628;48.654;8.932;2023-03-11T07:25:47;1.70;99.90
7174;DHT22;3628;48.654;8.932;2023-03-11T07:28:13;1.70;99.90
7174;DHT22;3628;48.654;8.932;2023-03-11T07:30:39;1.70;99.90
7174;DHT22;3628;48.654;8.932;2023-03-11T07:33:05;1.70;99.90
7174;DHT22;3628;48.654;8.932;2023-03-11T07:35:30;1.60;99.90
7174;DHT22;3628;48.654;8.932;2023-03-11T07:37:56;1.50;99.90
7174;DHT22;3628;48.654;8.932;2023-03-11T07:40:22;1.60;99.90
7174;DHT22;3628;48.654;8.932;2023-03-11T07:42:47;1.70;99.90
7174;DHT22;3628;48.654;8.932;2023-03-11T07:45:13;1.80;99.90
7174;DHT22;3628;48.654;8.932;2023-03-11T07:47:38;2.00;99.90
7174;DHT22;3628;48.654;8.932;2023-03-11T07:50:04;2.10;99.90
7174;DHT22;3628;48.654;8.932;2023-03-11T07:52:31;2.20;99.90
7174;DHT22;3628;48.654;8.932;2023-03-11T07:54:57;2.20;99.90
7174;DHT22;3628;48.654;8.932;2023-03-11T07:57:23;2.20;99.90
7174;DHT22;3628;48.654;8.932;2023-03-11T07:59:49;2.40;99.90
7174;DHT22;3628;48.654;8.932;2023-03-11T08:02:14;2.50;99.90
7174;DHT22;3628;48.654;8.932;2023-03-11T08:04:40;2.50;99.90
7174;DHT22;3628;48.654;8.932;2023-03-11T08:07:06;2.60;99.90
7174;DHT22;3628;48.654;8.932;2023-03-11T08:09:33;2.60;99.90
7174;DHT22;3628;48.654;8.932;2023-03-11T08:11:59;2.70;99.90
7174;DHT22;3628;48.654;8.932;2023-03-11T08:14:24;2.90;99.90
7174;DHT22;3628;48.654;8.932;2023-03-11T08:16:50;3.00;99.90
7174;DHT22;3628;48.654;8.932;2023-03-11T08:19:15;3.00;99.90
7174;DHT22;3628;48.654;8.932;2023-03-11T08:21:41;3.20;99.90
7174;DHT22;3628;48.654;8.932;2023-03-11T08:24:08;3.20;99.90
7174;DHT22;3628;48.654;8.932;2023-03-11T08:26:34;3.40;99.90
7174;DHT22;3628;48.654;8.932;2023-03-11T08:29:00;3.50;99.90
7174;DHT22;3628;48.654;8.932;2023-03-11T08:31:29;3.40;99.90
7174;DHT22;3628;48.654;8.932;2023-03-11T08:33:59;3.60;99.90
7174;DHT22;3628;48.654;8.932;2023-03-11T08:36:26;3.60;99.90
7174;DHT22;3628;48.654;8.932;2023-03-11T08:38:52;3.70;99.90
7174;DHT22;3628;48.654;8.932;2023-03-11T08:41:18;3.60;99.90
7174;DHT22;3628;48.654;8.932;2023-03-11T08:43:44;3.70;99.90
7174;DHT22;3628;48.654;8.932;2023-03-11T08:46:20;3.80;99.90
7174;DHT22;3628;48.654;8.932;2023-03-11T08:48:46;3.70;99.90
7174;DHT22;3628;48.654;8.932;2023-03-11T08:51:12;3.80;99.90
7174;DHT22;3628;48.654;8.932;2023-03-11T08:53:38;3.90;99.90
7174;DHT22;3628;48.654;8.932;2023-03-11T08:56:04;3.90;99.90
7174;DHT22;3628;48.654;8.932;2023-03-11T08:58:30;3.80;99.90
7174;DHT22;3628;48.654;8.932;2023-03-11T09:00:55;3.80;99.90
7174;DHT22;3628;48.654;8.932;2023-03-11T09:03:21;3.70;99.90
7174;DHT22;3628;48.654;8.932;2023-03-11T09:05:47;3.70;99.90
7174;DHT22;3628;48.654;8.932;2023-03-11T09:08:12;3.60;99.90
7174;DHT22;3628;48.654;8.932;2023-03-11T09:10:39;3.60;99.90
7174;DHT22;3628;48.654;8.932;2023-03-11T09:13:04;3.60;99.90
7174;DHT22;3628;48.654;8.932;2023-03-11T09:15:30;3.70;99.90
7174;DHT22;3628;48.654;8.932;2023-03-11T09:17:55;4.00;99.90
7174;DHT22;3628;48.654;8.932;2023-03-11T09:20:21;4.20;99.90
7174;DHT22;3628;48.654;8.932;2023-03-11T09:22:47;4.40;99.90
7174;DHT22;3628;48.654;8.932;2023-03-11T09:25:13;4.60;99.90
7174;DHT22;3628;48.654;8.932;2023-03-11T09:27:39;4.50;99.90
7174;DHT22;3628;48.654;8.932;2023-03-11T09:30:06;4.30;99.90
7174;DHT22;3628;48.654;8.932;2023-03-11T09:32:32;4.50;99.90
7174;DHT22;3628;48.654;8.932;2023-03-11T09:34:57;4.80;99.90
7174;DHT22;3628;48.654;8.932;2023-03-11T09:37:24;5.00;99.90
7174;DHT22;3628;48.654;8.932;2023-03-11T09:39:50;5.30;99.90
7174;DHT22;3628;48.654;8.932;2023-03-11T09:42:36;5.50;99.60
7174;DHT22;3628;48.654;8.932;2023-03-11T09:47:44;5.20;96.50
7174;DHT22;3628;48.654;8.932;2023-03-11T09:58:19;4.90;94.60
7174;DHT22;3628;48.654;8.932;2023-03-11T10:00:45;4.90;95.70
7174;DHT22;3628;48.654;8.932;2023-03-11T10:05:51;4.90;94.40
7174;DHT22;3628;48.654;8.932;2023-03-11T10:08:42;5.00;94.90
7174;DHT22;3628;48.654;8.932;2023-03-11T10:22:43;6.30;92.70
7174;DHT22;3628;48.654;8.932;2023-03-11T10:28:13;6.30;91.20
7174;DHT22;3628;48.654;8.932;2023-03-11T10:30:44;6.40;91.90
7174;DHT22;3628;48.654;8.932;2023-03-11T10:35:42;6.40;92.90
7174;DHT22;3628;48.654;8.932;2023-03-11T10:38:15;6.30;91.70
7174;DHT22;3628;48.654;8.932;2023-03-11T10:40:44;6.50;93.10
7174;DHT22;3628;48.654;8.932;2023-03-11T10:43:30;6.60;92.70
7174;DHT22;3628;48.654;8.932;2023-03-11T10:45:57;6.30;91.20
7174;DHT22;3628;48.654;8.932;2023-03-11T10:48:24;6.50;92.00
7174;DHT22;3628;48.654;8.932;2023-03-11T10:53:19;6.40;92.20
7174;DHT22;3628;48.654;8.932;2023-03-11T10:55:53;6.80;93.50
7174;DHT22;3628;48.654;8.932;2023-03-11T10:58:27;7.30;93.20
7174;DHT22;3628;48.654;8.932;2023-03-11T11:01:14;7.50;90.30
7174;DHT22;3628;48.654;8.932;2023-03-11T11:03:46;7.80;87.70
7174;DHT22;3628;48.654;8.932;2023-03-11T11:06:34;8.10;90.20
7174;DHT22;3628;48.654;8.932;2023-03-11T11:11:31;8.50;82.20
7174;DHT22;3628;48.654;8.932;2023-03-11T11:13:58;8.00;84.80
7174;DHT22;3628;48.654;8.932;2023-03-11T11:16:25;8.00;81.00
7174;DHT22;3628;48.654;8.932;2023-03-11T11:21:31;8.80;89.00
7174;DHT22;3628;48.654;8.932;2023-03-11T11:24:26;9.20;90.10
7174;DHT22;3628;48.654;8.932;2023-03-11T11:29:36;9.70;74.80
7174;DHT22;3628;48.654;8.932;2023-03-11T11:34:41;10.00;76.20
7174;DHT22;3628;48.654;8.932;2023-03-11T11:37:11;9.90;79.40
7174;DHT22;3628;48.654;8.932;2023-03-11T11:39:48;10.10;78.90
7174;DHT22;3628;48.654;8.932;2023-03-11T11:42:17;10.30;77.90
7174;DHT22;3628;48.654;8.932;2023-03-11T11:44:46;10.00;74.40
7174;DHT22;3628;48.654;8.932;2023-03-11T11:47:20;10.00;76.30
7174;DHT22;3628;48.654;8.932;2023-03-11T11:49:55;10.10;73.60
7174;DHT22;3628;48.654;8.932;2023-03-11T11:52:26;10.20;75.00
7174;DHT22;3628;48.654;8.932;2023-03-11T11:55:05;10.30;72.70
7174;DHT22;3628;48.654;8.932;2023-03-11T11:57:32;10.30;70.00
7174;DHT22;3628;48.654;8.932;2023-03-11T11:59:58;10.30;73.80
7174;DHT22;3628;48.654;8.932;2023-03-11T12:05:29;9.90;68.60
7174;DHT22;3628;48.654;8.932;2023-03-11T12:10:42;9.50;71.60
7174;DHT22;3628;48.654;8.932;2023-03-11T12:24:25;10.30;70.90
7174;DHT22;3628;48.654;8.932;2023-03-11T12:27:01;10.40;72.00
7174;DHT22;3628;48.654;8.932;2023-03-11T12:29:33;10.20;66.00
7174;DHT22;3628;48.654;8.932;2023-03-11T12:32:00;10.20;66.40
7174;DHT22;3628;48.654;8.932;2023-03-11T12:34:27;10.10;71.50
7174;DHT22;3628;48.654;8.932;2023-03-11T12:36:56;10.10;72.40
7174;DHT22;3628;48.654;8.932;2023-03-11T12:39:33;10.20;76.20
7174;DHT22;3628;48.654;8.932;2023-03-11T12:42:16;10.30;71.40
7174;DHT22;3628;48.654;8.932;2023-03-11T12:44:42;10.30;70.00
7174;DHT22;3628;48.654;8.932;2023-03-11T12:49:51;10.30;71.30
7174;DHT22;3628;48.654;8.932;2023-03-11T12:52:25;10.10;67.40
7174;DHT22;3628;48.654;8.932;2023-03-11T13:00:34;10.00;70.30
7174;DHT22;3628;48.654;8.932;2023-03-11T13:03:26;10.10;71.30
7174;DHT22;3628;48.654;8.932;2023-03-11T13:14:30;10.30;71.90
7174;DHT22;3628;48.654;8.932;2023-03-11T13:17:22;10.30;68.70
7174;DHT22;3628;48.654;8.932;2023-03-11T13:19:51;10.30;70.80
7174;DHT22;3628;48.654;8.932;2023-03-11T13:22:43;10.30;68.50
7174;DHT22;3628;48.654;8.932;2023-03-11T13:25:26;10.50;72.00
7174;DHT22;3628;48.654;8.932;2023-03-11T13:27:57;10.70;71.30
7174;DHT22;3628;48.654;8.932;2023-03-11T13:30:27;10.50;71.90
7174;DHT22;3628;48.654;8.932;2023-03-11T13:33:13;10.50;67.00
7174;DHT22;3628;48.654;8.932;2023-03-11T13:36:12;10.50;64.10
7174;DHT22;3628;48.654;8.932;2023-03-11T13:38:54;10.50;71.50
7174;DHT22;3628;48.654;8.932;2023-03-11T13:41:34;10.60;72.10
7174;DHT22;3628;48.654;8.932;2023-03-11T13:44:12;10.40;70.40
7174;DHT22;3628;48.654;8.932;2023-03-11T13:46:40;10.60;70.50
7174;DHT22;3628;48.654;8.932;2023-03-11T13:51:56;10.70;70.60
7174;DHT22;3628;48.654;8.932;2023-03-11T13:54:37;10.60;65.90
7174;DHT22;3628;48.654;8.932;2023-03-11T13:57:03;10.50;66.00
7174;DHT22;3628;48.654;8.932;2023-03-11T13:59:33;10.30;62.60
7174;DHT22;3628;48.654;8.932;2023-03-11T14:04:37;10.00;63.90
7174;DHT22;3628;48.654;8.932;2023-03-11T14:07:34;10.20;68.50
7174;DHT22;3628;48.654;8.932;2023-03-11T14:12:36;10.40;69.50
7174;DHT22;3628;48.654;8.932;2023-03-11T14:15:07;10.70;69.20
7174;DHT22;3628;48.654;8.932;2023-03-11T14:17:33;10.90;68.20
7174;DHT22;3628;48.654;8.932;2023-03-11T14:22:29;11.00;68.30
7174;DHT22;3628;48.654;8.932;2023-03-11T14:24:57;11.10;67.60
7174;DHT22;3628;48.654;8.932;2023-03-11T14:27:22;11.20;66.50
7174;DHT22;3628;48.654;8.932;2023-03-11T14:29:48;11.00;63.70
7174;DHT22;3628;48.654;8.932;2023-03-11T14:32:27;10.70;64.30
7174;DHT22;3628;48.654;8.932;2023-03-11T14:34:53;10.00;67.40
7174;DHT22;3628;48.654;8.932;2023-03-11T14:37:32;9.00;69.90
7174;DHT22;3628;48.654;8.932;2023-03-11T14:39:57;8.50;73.80
7174;DHT22;3628;48.654;8.932;2023-03-11T14:42:35;8.10;73.20
7174;DHT22;3628;48.654;8.932;2023-03-11T14:45:09;7.80;74.80
7174;DHT22;3628;48.654;8.932;2023-03-11T14:50:21;7.10;74.50
7174;DHT22;3628;48.654;8.932;2023-03-11T14:55:46;7.00;74.70
7174;DHT22;3628;48.654;8.932;2023-03-11T15:03:48;7.10;73.60
7174;DHT22;3628;48.654;8.932;2023-03-11T15:06:17;7.20;74.20
7174;DHT22;3628;48.654;8.932;2023-03-11T15:08:46;7.40;74.70
7174;DHT22;3628;48.654;8.932;2023-03-11T15:13:40;7.20;75.50
7174;DHT22;3628;48.654;8.932;2023-03-11T15:16:19;7.30;77.70
7174;DHT22;3628;48.654;8.932;2023-03-11T15:18:46;7.40;75.60
7174;DHT22;3628;48.654;8.932;2023-03-11T15:21:14;7.30;74.10
7174;DHT22;3628;48.654;8.932;2023-03-11T15:23:52;7.20;75.90
7174;DHT22;3628;48.654;8.932;2023-03-11T15:26:31;7.20;76.10
7174;DHT22;3628;48.654;8.932;2023-03-11T15:29:00;7.30;74.20
7174;DHT22;3628;48.654;8.932;2023-03-11T15:31:33;7.10;74.90
7174;DHT22;3628;48.654;8.932;2023-03-11T15:34:29;7.10;75.20
7174;DHT22;3628;48.654;8.932;2023-03-11T15:36:58;6.90;80.00
7174;DHT22;3628;48.654;8.932;2023-03-11T15:44:37;6.50;81.20
7174;DHT22;3628;48.654;8.932;2023-03-11T15:47:10;6.30;82.60
7174;DHT22;3628;48.654;8.932;2023-03-11T15:49:37;6.10;84.40
7174;DHT22;3628;48.654;8.932;2023-03-11T15:52:03;5.90;84.00
7174;DHT22;3628;48.654;8.932;2023-03-11T15:54:28;5.90;84.20
7174;DHT22;3628;48.654;8.932;2023-03-11T15:56:55;5.90;83.90
7174;DHT22;3628;48.654;8.932;2023-03-11T15:59:22;5.80;82.70
7174;DHT22;3628;48.654;8.932;2023-03-11T16:01:48;5.80;84.50
7174;DHT22;3628;48.654;8.932;2023-03-11T16:04:16;5.70;84.70
7174;DHT22;3628;48.654;8.932;2023-03-11T16:06:42;5.70;86.10
7174;DHT22;3628;48.654;8.932;2023-03-11T16:09:08;5.70;86.30
7174;DHT22;3628;48.654;8.932;2023-03-11T16:11:35;5.70;88.30
7174;DHT22;3628;48.654;8.932;2023-03-11T16:14:01;5.50;87.40
7174;DHT22;3628;48.654;8.932;2023-03-11T16:16:26;5.50;87.10
7174;DHT22;3628;48.654;8.932;2023-03-11T16:18:52;5.40;87.70
7174;DHT22;3628;48.654;8.932;2023-03-11T16:21:20;5.30;88.10
7174;DHT22;3628;48.654;8.932;2023-03-11T16:23:47;5.30;88.10
7174;DHT22;3628;48.654;8.932;2023-03-11T16:26:14;5.30;89.40
7174;DHT22;3628;48.654;8.932;2023-03-11T16:28:40;5.20;88.00
7174;DHT22;3628;48.654;8.932;2023-03-11T16:31:07;5.20;88.50
7174;DHT22;3628;48.654;8.932;2023-03-11T16:33:34;5.10;86.70
7174;DHT22;3628;48.654;8.932;2023-03-11T16:36:00;5.10;88.40
7174;DHT22;3628;48.654;8.932;2023-03-11T16:38:25;5.00;89.50
7174;DHT22;3628;48.654;8.932;2023-03-11T16:40:59;5.00;89.80
7174;DHT22;3628;48.654;8.932;2023-03-11T16:43:27;5.00;90.90
7174;DHT22;3628;48.654;8.932;2023-03-11T16:45:53;5.00;90.10
7174;DHT22;3628;48.654;8.932;2023-03-11T16:48:20;5.00;90.60
7174;DHT22;3628;48.654;8.932;2023-03-11T16:50:46;5.00;89.80
7174;DHT22;3628;48.654;8.932;2023-03-11T16:53:11;4.90;89.20
7174;DHT22;3628;48.654;8.932;2023-03-11T16:55:40;4.80;89.90
7174;DHT22;3628;48.654;8.932;2023-03-11T16:58:06;4.80;90.60
7174;DHT22;3628;48.654;8.932;2023-03-11T17:00:31;4.80;91.00
7174;DHT22;3628;48.654;8.932;2023-03-11T17:02:57;4.70;90.30
7174;DHT22;3628;48.654;8.932;2023-03-11T17:05:22;4.70;91.50
7174;DHT22;3628;48.654;8.932;2023-03-11T17:07:55;4.70;91.50
7174;DHT22;3628;48.654;8.932;2023-03-11T17:10:26;4.70;90.90
7174;DHT22;3628;48.654;8.932;2023-03-11T17:12:52;4.60;92.10
7174;DHT22;3628;48.654;8.932;2023-03-11T17:15:18;4.60;92.00
7174;DHT22;3628;48.654;8.932;2023-03-11T17:17:44;4.60;91.90
7174;DHT22;3628;48.654;8.932;2023-03-11T17:20:10;4.60;91.90
7174;DHT22;3628;48.654;8.932;2023-03-11T17:22:35;4.50;92.30
7174;DHT22;3628;48.654;8.932;2023-03-11T17:25:01;4.40;92.30
7174;DHT22;3628;48.654;8.932;2023-03-11T17:27:27;4.40;91.90
7174;DHT22;3628;48.654;8.932;2023-03-11T17:29:57;4.30;92.10
7174;DHT22;3628;48.654;8.932;2023-03-11T17:32:23;4.30;92.20
7174;DHT22;3628;48.654;8.932;2023-03-11T17:34:50;4.20;93.10
7174;DHT22;3628;48.654;8.932;2023-03-11T17:37:15;4.10;92.90
7174;DHT22;3628;48.654;8.932;2023-03-11T17:39:41;4.00;93.80
7174;DHT22;3628;48.654;8.932;2023-03-11T17:42:06;3.90;93.40
7174;DHT22;3628;48.654;8.932;2023-03-11T17:44:32;3.80;94.10
7174;DHT22;3628;48.654;8.932;2023-03-11T17:46:57;3.80;94.40
7174;DHT22;3628;48.654;8.932;2023-03-11T17:49:23;3.80;95.20
7174;DHT22;3628;48.654;8.932;2023-03-11T17:51:49;3.70;95.60
7174;DHT22;3628;48.654;8.932;2023-03-11T17:54:14;3.70;96.50
7174;DHT22;3628;48.654;8.932;2023-03-11T17:56:40;3.60;95.80
7174;DHT22;3628;48.654;8.932;2023-03-11T17:59:05;3.60;96.70
7174;DHT22;3628;48.654;8.932;2023-03-11T18:01:31;3.60;96.90
7174;DHT22;3628;48.654;8.932;2023-03-11T18:03:57;3.50;96.70
7174;DHT22;3628;48.654;8.932;2023-03-11T18:06:23;3.50;97.30
7174;DHT22;3628;48.654;8.932;2023-03-11T18:08:49;3.40;97.60
7174;DHT22;3628;48.654;8.932;2023-03-11T18:11:18;3.40;97.90